^^
Saratoga-Weather Station Historical Data
Daily Summary for March 5, 2021 Units:  Both    English   Metric
Daily Weekly Monthly Yearly Custom
  High: Low: Average:
Temperature: 65.8 °F /  18.8 °C 58.8 °F /  14.9 °C 62.1 °F /  16.7 °C
Dew Point: 62.2 °F /  16.8 °C 55.9 °F /  13.3 °C 59.5 °F /  15.3 °C
Humidity: 96% 83% 91%
Wind Speed: 15mph /  24.1km/h - 3.2mph /  5.2km/h
Wind Gust: 16mph /  25.7km/h - -
Wind- - West
Pressure: 30.2 in /  1022.4 hPa 30.1 in /  1018.0 hPa -
Precipitation: 0.08 in /  2.0 mm    
Historical Graphs
 
 
Tabular Data for March 5, 2021
Time Temperature Dew Point Pressure Wind Wind Speed Wind Gust Humidity Rainfall Rate (Hourly) solar
00:04 62.4 °F /  16.9 °C 61.3 °F /  16.3 °C 30.1in /  1018.6hPa West 0.9mph /  1.4km/h 6mph /  9.7km/h 96% 0in /  0.0mm 0 W/m2
00:09 62.4 °F /  16.9 °C 61.3 °F /  16.3 °C 30.1in /  1019.0hPa West 0.9mph /  1.4km/h 4mph /  6.4km/h 96% 0in /  0.0mm 0 W/m2
00:14 62.4 °F /  16.9 °C 61 °F /  16.1 °C 30.1in /  1019.0hPa WNW 4.9mph /  7.9km/h 7mph /  11.3km/h 95% 0in /  0.0mm 0 W/m2
00:19 62.2 °F /  16.8 °C 60.8 °F /  16 °C 30.1in /  1019.0hPa WNW 2mph /  3.2km/h 4mph /  6.4km/h 95% 0in /  0.0mm 0 W/m2
00:24 62.1 °F /  16.7 °C 60.6 °F /  15.9 °C 30.1in /  1019.0hPa WNW 2mph /  3.2km/h 4mph /  6.4km/h 95% 0in /  0.0mm 0 W/m2
00:29 62.1 °F /  16.7 °C 60.6 °F /  15.9 °C 30.1in /  1019.0hPa WNW 2mph /  3.2km/h 4mph /  6.4km/h 95% 0in /  0.0mm 0 W/m2
00:34 61.9 °F /  16.6 °C 60.4 °F /  15.8 °C 30.1in /  1019.0hPa WNW 2mph /  3.2km/h 5mph /  8km/h 95% 0in /  0.0mm 0 W/m2
00:39 61.9 °F /  16.6 °C 60.8 °F /  16 °C 30.1in /  1019.0hPa WNW 0.9mph /  1.4km/h 4mph /  6.4km/h 96% 0in /  0.0mm 0 W/m2
00:44 61.9 °F /  16.6 °C 60.8 °F /  16 °C 30.1in /  1018.6hPa NW 0.9mph /  1.4km/h 3mph /  4.8km/h 96% 0in /  0.0mm 0 W/m2
00:49 61.7 °F /  16.5 °C 60.6 °F /  15.9 °C 30.1in /  1018.6hPa WNW 0.9mph /  1.4km/h 2mph /  3.2km/h 96% 0in /  0.0mm 0 W/m2
00:54 61.7 °F /  16.5 °C 60.6 °F /  15.9 °C 30.1in /  1018.6hPa WNW 0.9mph /  1.4km/h 2mph /  3.2km/h 96% 0in /  0.0mm 0 W/m2
00:59 61.5 °F /  16.4 °C 60.4 °F /  15.8 °C 30.1in /  1019.0hPa Calm     96% 0in /  0.0mm 0 W/m2
01:04 61.3 °F /  16.3 °C 60.3 °F /  15.7 °C 30.1in /  1019.0hPa Calm   2mph /  3.2km/h 96% 0in /  0.0mm 0 W/m2
01:09 61.3 °F /  16.3 °C 60.3 °F /  15.7 °C 30.1in /  1019.0hPa Calm     96% 0in /  0.0mm 0 W/m2
01:14 61.2 °F /  16.2 °C 60.1 °F /  15.6 °C 30.1in /  1019.0hPa Calm   2mph /  3.2km/h 96% 0in /  0.0mm 0 W/m2
01:19 61.2 °F /  16.2 °C 60.1 °F /  15.6 °C 30.1in /  1019.0hPa Calm   1mph /  1.6km/h 96% 0in /  0.0mm 0 W/m2
01:24 61.2 °F /  16.2 °C 60.1 °F /  15.6 °C 30.1in /  1019.0hPa Calm   1mph /  1.6km/h 96% 0in /  0.0mm 0 W/m2
01:29 61.2 °F /  16.2 °C 60.1 °F /  15.6 °C 30.1in /  1019.0hPa Calm     96% 0in /  0.0mm 0 W/m2
01:34 61.2 °F /  16.2 °C 60.1 °F /  15.6 °C 30.1in /  1019.0hPa WNW 2mph /  3.2km/h 2mph /  3.2km/h 96% 0in /  0.0mm 0 W/m2
01:39 61.3 °F /  16.3 °C 60.3 °F /  15.7 °C 30.1in /  1018.6hPa WSW 4mph /  6.4km/h 4mph /  6.4km/h 96% 0in /  0.0mm 0 W/m2
01:44 61.5 °F /  16.4 °C 60.4 °F /  15.8 °C 30.1in /  1018.6hPa WNW 2mph /  3.2km/h 4mph /  6.4km/h 96% 0in /  0.0mm 0 W/m2
01:49 61.7 °F /  16.5 °C 60.6 °F /  15.9 °C 30.1in /  1018.6hPa Calm   1mph /  1.6km/h 96% 0in /  0.0mm 0 W/m2
01:54 61.7 °F /  16.5 °C 60.6 °F /  15.9 °C 30.1in /  1018.6hPa WNW 0.9mph /  1.4km/h 4mph /  6.4km/h 96% 0in /  0.0mm 0 W/m2
01:59 61.5 °F /  16.4 °C 60.4 °F /  15.8 °C 30.1in /  1018.6hPa Calm   1mph /  1.6km/h 96% 0in /  0.0mm 0 W/m2
02:04 61.3 °F /  16.3 °C 60.3 °F /  15.7 °C 30.1in /  1018.3hPa WNW 0.9mph /  1.4km/h 1mph /  1.6km/h 96% 0in /  0.0mm 0 W/m2
02:09 61.3 °F /  16.3 °C 60.3 °F /  15.7 °C 30.1in /  1018.3hPa Calm     96% 0in /  0.0mm 0 W/m2
02:14 61.3 °F /  16.3 °C 60.3 °F /  15.7 °C 30.1in /  1018.3hPa Calm     96% 0in /  0.0mm 0 W/m2
02:19 61.3 °F /  16.3 °C 60.3 °F /  15.7 °C 30.1in /  1018.3hPa Calm     96% 0in /  0.0mm 0 W/m2
02:24 61.3 °F /  16.3 °C 60.3 °F /  15.7 °C 30.1in /  1018.3hPa Calm     96% 0in /  0.0mm 0 W/m2
02:29 61.3 °F /  16.3 °C 60.3 °F /  15.7 °C 30.1in /  1018.3hPa West 2.9mph /  4.7km/h 3mph /  4.8km/h 96% 0in /  0.0mm 0 W/m2
02:34 61.3 °F /  16.3 °C 60.3 °F /  15.7 °C 30.1in /  1018.3hPa SW 2.9mph /  4.7km/h 3mph /  4.8km/h 96% 0in /  0.0mm 0 W/m2
02:39 61.5 °F /  16.4 °C 60.4 °F /  15.8 °C 30.1in /  1018.3hPa Calm   3mph /  4.8km/h 96% 0in /  0.0mm 0 W/m2
02:44 61.7 °F /  16.5 °C 60.6 °F /  15.9 °C 30.1in /  1018.3hPa WSW 0.9mph /  1.4km/h 2mph /  3.2km/h 96% 0in /  0.0mm 0 W/m2
02:49 61.7 °F /  16.5 °C 60.6 °F /  15.9 °C 30.1in /  1018.6hPa Calm   4mph /  6.4km/h 96% 0in /  0.0mm 0 W/m2
02:54 61.9 °F /  16.6 °C 60.8 °F /  16 °C 30.1in /  1018.6hPa Calm   1mph /  1.6km/h 96% 0in /  0.0mm 0 W/m2
02:59 61.9 °F /  16.6 °C 60.8 °F /  16 °C 30.1in /  1018.6hPa Calm   3mph /  4.8km/h 96% 0in /  0.0mm 0 W/m2
03:04 61.9 °F /  16.6 °C 60.8 °F /  16 °C 30.1in /  1018.6hPa ENE 0.9mph /  1.4km/h 1mph /  1.6km/h 96% 0in /  0.0mm 0 W/m2
03:09 61.9 °F /  16.6 °C 60.8 °F /  16 °C 30.1in /  1018.6hPa NNW 0.9mph /  1.4km/h 3mph /  4.8km/h 96% 0in /  0.0mm 0 W/m2
03:14 62.1 °F /  16.7 °C 61 °F /  16.1 °C 30.1in /  1018.6hPa Calm   2mph /  3.2km/h 96% 0in /  0.0mm 0 W/m2
03:19 62.1 °F /  16.7 °C 61 °F /  16.1 °C 30.1in /  1018.3hPa Calm   3mph /  4.8km/h 96% 0in /  0.0mm 0 W/m2
03:24 61.9 °F /  16.6 °C 60.8 °F /  16 °C 30.1in /  1018.6hPa SW 2mph /  3.2km/h 3mph /  4.8km/h 96% 0in /  0.0mm 0 W/m2
03:29 61.9 °F /  16.6 °C 60.8 °F /  16 °C 30.1in /  1018.6hPa West 2.9mph /  4.7km/h 3mph /  4.8km/h 96% 0in /  0.0mm 0 W/m2
03:34 61.9 °F /  16.6 °C 60.8 °F /  16 °C 30.1in /  1018.6hPa West 2.9mph /  4.7km/h 3mph /  4.8km/h 96% 0in /  0.0mm 0 W/m2
03:39 62.1 °F /  16.7 °C 61 °F /  16.1 °C 30.1in /  1018.6hPa West 2mph /  3.2km/h 6mph /  9.7km/h 96% 0in /  0.0mm 0 W/m2
03:44 62.1 °F /  16.7 °C 61 °F /  16.1 °C 30.1in /  1018.3hPa WNW 2mph /  3.2km/h 3mph /  4.8km/h 96% 0in /  0.0mm 0 W/m2
03:49 62.1 °F /  16.7 °C 60.6 °F /  15.9 °C 30.1in /  1018.3hPa NW 2.9mph /  4.7km/h 5mph /  8km/h 95% 0in /  0.0mm 0 W/m2
03:54 62.1 °F /  16.7 °C 60.6 °F /  15.9 °C 30.1in /  1018.3hPa WSW 0.9mph /  1.4km/h 2mph /  3.2km/h 95% 0in /  0.0mm 0 W/m2
03:59 61.9 °F /  16.6 °C 60.4 °F /  15.8 °C 30.1in /  1018.3hPa WNW 0.9mph /  1.4km/h 4mph /  6.4km/h 95% 0in /  0.0mm 0 W/m2
04:04 61.9 °F /  16.6 °C 60.4 °F /  15.8 °C 30.1in /  1018.3hPa WNW 0.9mph /  1.4km/h 1mph /  1.6km/h 95% 0in /  0.0mm 0 W/m2
04:09 61.9 °F /  16.6 °C 60.4 °F /  15.8 °C 30.1in /  1018.6hPa Calm   1mph /  1.6km/h 95% 0in /  0.0mm 0 W/m2
04:14 61.9 °F /  16.6 °C 60.4 °F /  15.8 °C 30.1in /  1018.6hPa Calm   1mph /  1.6km/h 95% 0in /  0.0mm 0 W/m2
04:19 61.9 °F /  16.6 °C 60.4 °F /  15.8 °C 30.1in /  1018.6hPa WNW 2mph /  3.2km/h 2mph /  3.2km/h 95% 0in /  0.0mm 0 W/m2
04:24 61.9 °F /  16.6 °C 60.4 °F /  15.8 °C 30.1in /  1018.6hPa WNW 0.9mph /  1.4km/h 1mph /  1.6km/h 95% 0in /  0.0mm 0 W/m2
04:29 61.9 °F /  16.6 °C 60.4 °F /  15.8 °C 30.1in /  1018.3hPa West 0.9mph /  1.4km/h 3mph /  4.8km/h 95% 0in /  0.0mm 0 W/m2
04:34 61.9 °F /  16.6 °C 60.4 °F /  15.8 °C 30.1in /  1018.3hPa WNW 2mph /  3.2km/h 6mph /  9.7km/h 95% 0in /  0.0mm 0 W/m2
04:40 61.7 °F /  16.5 °C 60.3 °F /  15.7 °C 30.1in /  1018.3hPa NW 4mph /  6.4km/h 5mph /  8km/h 95% 0in /  0.0mm 0 W/m2
04:45 61.5 °F /  16.4 °C 60.1 °F /  15.6 °C 30.1in /  1018.3hPa WNW 2.9mph /  4.7km/h 4mph /  6.4km/h 95% 0in /  0.0mm 0 W/m2
04:50 61.5 °F /  16.4 °C 60.1 °F /  15.6 °C 30.1in /  1018.3hPa WNW 0.9mph /  1.4km/h 4mph /  6.4km/h 95% 0in /  0.0mm 0 W/m2
04:55 61.5 °F /  16.4 °C 60.1 °F /  15.6 °C 30.1in /  1018.3hPa West 2mph /  3.2km/h 2mph /  3.2km/h 95% 0in /  0.0mm 0 W/m2
05:00 61.5 °F /  16.4 °C 60.1 °F /  15.6 °C 30.1in /  1018.0hPa Calm   2mph /  3.2km/h 95% 0in /  0.0mm 0 W/m2
05:05 61.5 °F /  16.4 °C 60.1 °F /  15.6 °C 30.1in /  1018.3hPa Calm     95% 0in /  0.0mm 0 W/m2
05:10 61.5 °F /  16.4 °C 60.1 °F /  15.6 °C 30.1in /  1018.3hPa Calm     95% 0in /  0.0mm 0 W/m2
05:15 61.5 °F /  16.4 °C 60.1 °F /  15.6 °C 30.1in /  1018.3hPa WSW 2mph /  3.2km/h 3mph /  4.8km/h 95% 0in /  0.0mm 0 W/m2
05:20 61.3 °F /  16.3 °C 59.9 °F /  15.5 °C 30.1in /  1018.3hPa Calm   1mph /  1.6km/h 95% 0in /  0.0mm 0 W/m2
05:25 61.3 °F /  16.3 °C 59.9 °F /  15.5 °C 30.1in /  1018.3hPa Calm     95% 0in /  0.0mm 0 W/m2
05:30 61.3 °F /  16.3 °C 59.9 °F /  15.5 °C 30.1in /  1018.3hPa Calm     95% 0in /  0.0mm 0 W/m2
05:35 61.3 °F /  16.3 °C 59.9 °F /  15.5 °C 30.1in /  1018.3hPa WSW 2.9mph /  4.7km/h 4mph /  6.4km/h 95% 0in /  0.0mm 0 W/m2
05:40 61.3 °F /  16.3 °C 59.9 °F /  15.5 °C 30.1in /  1018.3hPa West 2mph /  3.2km/h 3mph /  4.8km/h 95% 0in /  0.0mm 0 W/m2
05:45 61.5 °F /  16.4 °C 60.1 °F /  15.6 °C 30.1in /  1018.3hPa West 2mph /  3.2km/h 3mph /  4.8km/h 95% 0in /  0.0mm 0 W/m2
05:50 61.3 °F /  16.3 °C 59.9 °F /  15.5 °C 30.1in /  1018.3hPa West 2mph /  3.2km/h 3mph /  4.8km/h 95% 0in /  0.0mm 0 W/m2
05:55 61.5 °F /  16.4 °C 60.1 °F /  15.6 °C 30.1in /  1018.3hPa West 0.9mph /  1.4km/h 2mph /  3.2km/h 95% 0in /  0.0mm 0 W/m2
06:00 61.5 °F /  16.4 °C 60.1 °F /  15.6 °C 30.1in /  1018.3hPa WSW 0.9mph /  1.4km/h 1mph /  1.6km/h 95% 0in /  0.0mm 7 W/m2
06:05 61.5 °F /  16.4 °C 60.1 °F /  15.6 °C 30.1in /  1018.3hPa WSW 0.9mph /  1.4km/h 2mph /  3.2km/h 95% 0in /  0.0mm 9 W/m2
06:10 61.5 °F /  16.4 °C 60.1 °F /  15.6 °C 30.1in /  1018.3hPa Calm   3mph /  4.8km/h 95% 0in /  0.0mm 12 W/m2
06:15 61.5 °F /  16.4 °C 60.1 °F /  15.6 °C 30.1in /  1018.3hPa WSW 0.9mph /  1.4km/h 2mph /  3.2km/h 95% 0in /  0.0mm 18 W/m2
06:20 61.5 °F /  16.4 °C 60.1 °F /  15.6 °C 30.1in /  1018.3hPa West 0.9mph /  1.4km/h 3mph /  4.8km/h 95% 0in /  0.0mm 21 W/m2
06:25 61.5 °F /  16.4 °C 60.1 °F /  15.6 °C 30.1in /  1018.3hPa West 2.9mph /  4.7km/h 4mph /  6.4km/h 95% 0in /  0.0mm 21 W/m2
06:30 61.5 °F /  16.4 °C 60.1 °F /  15.6 °C 30.1in /  1018.3hPa WSW 2mph /  3.2km/h 3mph /  4.8km/h 95% 0in /  0.0mm 21 W/m2
06:35 61.5 °F /  16.4 °C 60.1 °F /  15.6 °C 30.1in /  1018.3hPa West 2mph /  3.2km/h 4mph /  6.4km/h 95% 0in /  0.0mm 19 W/m2
06:40 61.7 °F /  16.5 °C 60.3 °F /  15.7 °C 30.1in /  1018.3hPa West 2mph /  3.2km/h 2mph /  3.2km/h 95% 0in /  0.0mm 16 W/m2
06:45 61.9 °F /  16.6 °C 60.1 °F /  15.6 °C 30.1in /  1018.3hPa WSW 2.9mph /  4.7km/h 4mph /  6.4km/h 94% 0in /  0.0mm 12 W/m2
06:50 61.9 °F /  16.6 °C 60.1 °F /  15.6 °C 30.1in /  1018.3hPa West 2mph /  3.2km/h 3mph /  4.8km/h 94% 0in /  0.0mm 14 W/m2
06:55 61.9 °F /  16.6 °C 60.1 °F /  15.6 °C 30.1in /  1018.6hPa West 2mph /  3.2km/h 5mph /  8km/h 94% 0in /  0.0mm 12 W/m2
07:00 61.9 °F /  16.6 °C 60.1 °F /  15.6 °C 30.1in /  1018.6hPa West 2mph /  3.2km/h 3mph /  4.8km/h 94% 0in /  0.0mm 11 W/m2
07:05 61.9 °F /  16.6 °C 60.1 °F /  15.6 °C 30.1in /  1018.6hPa WNW 0.9mph /  1.4km/h 5mph /  8km/h 94% 0in /  0.0mm 11 W/m2
07:10 61.9 °F /  16.6 °C 60.1 °F /  15.6 °C 30.1in /  1018.6hPa WNW 0.9mph /  1.4km/h 3mph /  4.8km/h 94% 0.01in /  0.2mm 14 W/m2
07:15 61.9 °F /  16.6 °C 60.1 °F /  15.6 °C 30.1in /  1018.6hPa WNW 0.9mph /  1.4km/h 2mph /  3.2km/h 94% 0.01in /  0.2mm 16 W/m2
07:20 61.9 °F /  16.6 °C 60.1 °F /  15.6 °C 30.1in /  1018.6hPa WSW 2mph /  3.2km/h 2mph /  3.2km/h 94% 0.02in /  0.5mm 25 W/m2
07:25 61.7 °F /  16.5 °C 59.9 °F /  15.5 °C 30.1in /  1019.0hPa West 2mph /  3.2km/h 4mph /  6.4km/h 94% 0.02in /  0.5mm 26 W/m2
07:30 61.7 °F /  16.5 °C 60.3 °F /  15.7 °C 30.1in /  1019.0hPa West 0.9mph /  1.4km/h 1mph /  1.6km/h 95% 0.03in /  0.8mm 32 W/m2
07:35 61.7 °F /  16.5 °C 60.3 °F /  15.7 °C 30.1in /  1019.0hPa Calm   4mph /  6.4km/h 95% 0.04in /  1.0mm 26 W/m2
07:40 61.5 °F /  16.4 °C 60.1 °F /  15.6 °C 30.1in /  1019.0hPa SW 0.9mph /  1.4km/h 2mph /  3.2km/h 95% 0.05in /  1.3mm 28 W/m2
07:45 61.7 °F /  16.5 °C 60.3 °F /  15.7 °C 30.1in /  1019.0hPa SW 0.9mph /  1.4km/h 2mph /  3.2km/h 95% 0.05in /  1.3mm 33 W/m2
07:50 61.5 °F /  16.4 °C 60.1 °F /  15.6 °C 30.1in /  1018.6hPa West 0.9mph /  1.4km/h 2mph /  3.2km/h 95% 0.05in /  1.3mm 42 W/m2
07:55 61.7 °F /  16.5 °C 60.3 °F /  15.7 °C 30.1in /  1018.6hPa West 2.9mph /  4.7km/h 3mph /  4.8km/h 95% 0.05in /  1.3mm 49 W/m2
08:00 61.9 °F /  16.6 °C 60.4 °F /  15.8 °C 30.1in /  1018.6hPa West 0.9mph /  1.4km/h 2mph /  3.2km/h 95% 0.06in /  1.5mm 62 W/m2
08:05 61.9 °F /  16.6 °C 60.4 °F /  15.8 °C 30.1in /  1018.6hPa West 2mph /  3.2km/h 2mph /  3.2km/h 95% 0.07in /  1.8mm 77 W/m2
08:10 61.9 °F /  16.6 °C 60.4 °F /  15.8 °C 30.1in /  1018.6hPa West 2mph /  3.2km/h 2mph /  3.2km/h 95% 0.06in /  1.5mm 98 W/m2
08:15 61.9 °F /  16.6 °C 60.4 °F /  15.8 °C 30.1in /  1018.6hPa WNW 2mph /  3.2km/h 3mph /  4.8km/h 95% 0.06in /  1.5mm 98 W/m2
08:20 62.1 °F /  16.7 °C 60.6 °F /  15.9 °C 30.1in /  1019.0hPa WNW 2mph /  3.2km/h 2mph /  3.2km/h 95% 0.06in /  1.5mm 93 W/m2
08:25 62.1 °F /  16.7 °C 60.6 °F /  15.9 °C 30.1in /  1019.0hPa West 2mph /  3.2km/h 4mph /  6.4km/h 95% 0.05in /  1.3mm 104 W/m2
08:30 62.1 °F /  16.7 °C 60.6 °F /  15.9 °C 30.1in /  1018.6hPa WNW 2mph /  3.2km/h 4mph /  6.4km/h 95% 0.03in /  0.8mm 114 W/m2
08:35 62.1 °F /  16.7 °C 60.6 °F /  15.9 °C 30.1in /  1018.6hPa WSW 2.9mph /  4.7km/h 3mph /  4.8km/h 95% 0.03in /  0.8mm 120 W/m2
08:40 62.2 °F /  16.8 °C 60.8 °F /  16 °C 30.1in /  1019.0hPa WSW 0.9mph /  1.4km/h 2mph /  3.2km/h 95% 0.02in /  0.5mm 125 W/m2
08:45 62.2 °F /  16.8 °C 60.8 °F /  16 °C 30.1in /  1019.0hPa WNW 0.9mph /  1.4km/h 3mph /  4.8km/h 95% 0.02in /  0.5mm 116 W/m2
08:50 62.4 °F /  16.9 °C 61 °F /  16.1 °C 30.1in /  1019.0hPa WNW 0.9mph /  1.4km/h 2mph /  3.2km/h 95% 0.02in /  0.5mm 91 W/m2
08:55 62.6 °F /  17 °C 61.2 °F /  16.2 °C 30.1in /  1019.0hPa WNW 0.9mph /  1.4km/h 1mph /  1.6km/h 95% 0.02in /  0.5mm 76 W/m2
09:01 62.8 °F /  17.1 °C 61.3 °F /  16.3 °C 30.1in /  1019.0hPa West 0.9mph /  1.4km/h 2mph /  3.2km/h 95% 0.01in /  0.2mm 81 W/m2
09:06 62.8 °F /  17.1 °C 61 °F /  16.1 °C 30.1in /  1019.0hPa West 2mph /  3.2km/h 3mph /  4.8km/h 94% 0in /  0.0mm 98 W/m2
09:11 62.8 °F /  17.1 °C 61 °F /  16.1 °C 30.1in /  1019.0hPa Calm   2mph /  3.2km/h 94% 0in /  0.0mm 95 W/m2
09:16 63 °F /  17.2 °C 61.5 °F /  16.4 °C 30.1in /  1019.0hPa WNW 2mph /  3.2km/h 2mph /  3.2km/h 95% 0in /  0.0mm 111 W/m2
09:21 63 °F /  17.2 °C 61.5 °F /  16.4 °C 30.1in /  1019.0hPa WNW 2mph /  3.2km/h 3mph /  4.8km/h 95% 0.01in /  0.2mm 120 W/m2
09:26 63 °F /  17.2 °C 61.2 °F /  16.2 °C 30.1in /  1019.0hPa WNW 0.9mph /  1.4km/h 2mph /  3.2km/h 94% 0.01in /  0.2mm 142 W/m2
09:31 63.1 °F /  17.3 °C 61.3 °F /  16.3 °C 30.1in /  1019.0hPa Calm   1mph /  1.6km/h 94% 0.01in /  0.2mm 111 W/m2
09:36 63.3 °F /  17.4 °C 61.5 °F /  16.4 °C 30.1in /  1019.0hPa West 0.9mph /  1.4km/h 4mph /  6.4km/h 94% 0.01in /  0.2mm 118 W/m2
09:41 63.3 °F /  17.4 °C 61.5 °F /  16.4 °C 30.1in /  1019.0hPa WSW 2mph /  3.2km/h 4mph /  6.4km/h 94% 0.01in /  0.2mm 72 W/m2
09:46 63.3 °F /  17.4 °C 61.5 °F /  16.4 °C 30.1in /  1019.0hPa WNW 2mph /  3.2km/h 6mph /  9.7km/h 94% 0.01in /  0.2mm 83 W/m2
09:51 63.3 °F /  17.4 °C 61.3 °F /  16.3 °C 30.1in /  1019.0hPa NW 2mph /  3.2km/h 3mph /  4.8km/h 93% 0.01in /  0.2mm 77 W/m2
09:56 63.7 °F /  17.6 °C 61.7 °F /  16.5 °C 30.1in /  1019.0hPa West 2mph /  3.2km/h 6mph /  9.7km/h 93% 0.01in /  0.2mm 100 W/m2
10:01 63.7 °F /  17.6 °C 61.7 °F /  16.5 °C 30.1in /  1019.0hPa West 0.9mph /  1.4km/h 3mph /  4.8km/h 93% 0.01in /  0.2mm 118 W/m2
10:06 63.9 °F /  17.7 °C 61.9 °F /  16.6 °C 30.1in /  1019.0hPa West 0.9mph /  1.4km/h 5mph /  8km/h 93% 0.01in /  0.2mm 137 W/m2
10:11 63.9 °F /  17.7 °C 61.9 °F /  16.6 °C 30.1in /  1019.0hPa WSW 2.9mph /  4.7km/h 3mph /  4.8km/h 93% 0.01in /  0.2mm 102 W/m2
10:16 64 °F /  17.8 °C 61.7 °F /  16.5 °C 30.1in /  1019.0hPa WNW 2mph /  3.2km/h 3mph /  4.8km/h 92% 0.01in /  0.2mm 102 W/m2
10:21 64.2 °F /  17.9 °C 62.2 °F /  16.8 °C 30.1in /  1019.3hPa WNW 0.9mph /  1.4km/h 3mph /  4.8km/h 93% 0in /  0.0mm 142 W/m2
10:26 64.2 °F /  17.9 °C 61.9 °F /  16.6 °C 30.1in /  1019.3hPa WNW 2.9mph /  4.7km/h 5mph /  8km/h 92% 0in /  0.0mm 139 W/m2
10:31 64 °F /  17.8 °C 61.7 °F /  16.5 °C 30.1in /  1019.0hPa West 2mph /  3.2km/h 3mph /  4.8km/h 92% 0in /  0.0mm 121 W/m2
10:36 64.2 °F /  17.9 °C 61.9 °F /  16.6 °C 30.1in /  1019.3hPa WNW 0.9mph /  1.4km/h 3mph /  4.8km/h 92% 0in /  0.0mm 137 W/m2
10:41 64.2 °F /  17.9 °C 61.9 °F /  16.6 °C 30.1in /  1019.0hPa West 2mph /  3.2km/h 6mph /  9.7km/h 92% 0in /  0.0mm 156 W/m2
10:46 64.2 °F /  17.9 °C 61.9 °F /  16.6 °C 30.1in /  1019.3hPa West 6.9mph /  11.1km/h 7mph /  11.3km/h 92% 0in /  0.0mm 156 W/m2
10:51 64.2 °F /  17.9 °C 61.9 °F /  16.6 °C 30.1in /  1019.3hPa West 2mph /  3.2km/h 4mph /  6.4km/h 92% 0in /  0.0mm 163 W/m2
10:56 64.2 °F /  17.9 °C 61.9 °F /  16.6 °C 30.1in /  1019.3hPa WSW 4mph /  6.4km/h 7mph /  11.3km/h 92% 0in /  0.0mm 183 W/m2
11:01 64.2 °F /  17.9 °C 61.9 °F /  16.6 °C 30.1in /  1019.3hPa West 6mph /  9.7km/h 6mph /  9.7km/h 92% 0in /  0.0mm 162 W/m2
11:06 64.2 °F /  17.9 °C 61.9 °F /  16.6 °C 30.1in /  1019.3hPa WSW 4mph /  6.4km/h 5mph /  8km/h 92% 0in /  0.0mm 128 W/m2
11:11 64.2 °F /  17.9 °C 61.5 °F /  16.4 °C 30.1in /  1019.3hPa WNW 2mph /  3.2km/h 6mph /  9.7km/h 91% 0in /  0.0mm 141 W/m2
11:16 64 °F /  17.8 °C 61.3 °F /  16.3 °C 30.1in /  1019.3hPa West 4mph /  6.4km/h 6mph /  9.7km/h 91% 0in /  0.0mm 156 W/m2
11:21 64 °F /  17.8 °C 61.7 °F /  16.5 °C 30.1in /  1019.3hPa West 4mph /  6.4km/h 6mph /  9.7km/h 92% 0in /  0.0mm 193 W/m2
11:26 64 °F /  17.8 °C 61.3 °F /  16.3 °C 30.1in /  1019.3hPa West 6.9mph /  11.1km/h 9mph /  14.5km/h 91% 0in /  0.0mm 199 W/m2
11:31 64 °F /  17.8 °C 61.3 °F /  16.3 °C 30.1in /  1019.3hPa WNW 4mph /  6.4km/h 5mph /  8km/h 91% 0in /  0.0mm 146 W/m2
11:36 64 °F /  17.8 °C 61.3 °F /  16.3 °C 30.1in /  1019.6hPa West 6.9mph /  11.1km/h 9mph /  14.5km/h 91% 0in /  0.0mm 155 W/m2
11:41 64 °F /  17.8 °C 61.3 °F /  16.3 °C 30.1in /  1019.3hPa West 4mph /  6.4km/h 5mph /  8km/h 91% 0in /  0.0mm 125 W/m2
11:46 63.9 °F /  17.7 °C 61.2 °F /  16.2 °C 30.1in /  1019.6hPa WNW 2mph /  3.2km/h 7mph /  11.3km/h 91% 0in /  0.0mm 100 W/m2
11:51 63.7 °F /  17.6 °C 61 °F /  16.1 °C 30.1in /  1019.3hPa West 2.9mph /  4.7km/h 7mph /  11.3km/h 91% 0in /  0.0mm 98 W/m2
11:56 63.7 °F /  17.6 °C 61 °F /  16.1 °C 30.1in /  1019.6hPa WNW 4.9mph /  7.9km/h 9mph /  14.5km/h 91% 0in /  0.0mm 81 W/m2
12:01 63.3 °F /  17.4 °C 60.6 °F /  15.9 °C 30.1in /  1019.6hPa WNW 6.9mph /  11.1km/h 7mph /  11.3km/h 91% 0in /  0.0mm 69 W/m2
12:06 63.1 °F /  17.3 °C 60.4 °F /  15.8 °C 30.1in /  1019.6hPa West 2.9mph /  4.7km/h 10mph /  16.1km/h 91% 0in /  0.0mm 72 W/m2
12:11 63.1 °F /  17.3 °C 60.8 °F /  16 °C 30.1in /  1019.6hPa WNW 2.9mph /  4.7km/h 5mph /  8km/h 92% 0in /  0.0mm 81 W/m2
12:16 63.1 °F /  17.3 °C 60.8 °F /  16 °C 30.1in /  1019.6hPa NW 2.9mph /  4.7km/h 4mph /  6.4km/h 92% 0in /  0.0mm 86 W/m2
12:21 63.1 °F /  17.3 °C 60.8 °F /  16 °C 30.1in /  1019.6hPa WSW 4mph /  6.4km/h 11mph /  17.7km/h 92% 0in /  0.0mm 91 W/m2
12:26 63.1 °F /  17.3 °C 60.8 °F /  16 °C 30.1in /  1019.6hPa WNW 4mph /  6.4km/h 9mph /  14.5km/h 92% 0in /  0.0mm 79 W/m2
12:31 63.1 °F /  17.3 °C 60.8 °F /  16 °C 30.1in /  1019.6hPa WNW 2mph /  3.2km/h 11mph /  17.7km/h 92% 0in /  0.0mm 86 W/m2
12:36 63 °F /  17.2 °C 60.6 °F /  15.9 °C 30.1in /  1019.6hPa West 2.9mph /  4.7km/h 4mph /  6.4km/h 92% 0in /  0.0mm 100 W/m2
12:41 63.1 °F /  17.3 °C 61.2 °F /  16.2 °C 30.1in /  1019.6hPa West 2mph /  3.2km/h 3mph /  4.8km/h 93% 0in /  0.0mm 125 W/m2
12:46 63.1 °F /  17.3 °C 61.2 °F /  16.2 °C 30.1in /  1019.6hPa SW 2.9mph /  4.7km/h 4mph /  6.4km/h 93% 0in /  0.0mm 120 W/m2
12:51 63.3 °F /  17.4 °C 61.3 °F /  16.3 °C 30.1in /  1019.6hPa West 6mph /  9.7km/h 7mph /  11.3km/h 93% 0in /  0.0mm 100 W/m2
12:56 63.3 °F /  17.4 °C 61.3 °F /  16.3 °C 30.1in /  1019.6hPa West 4mph /  6.4km/h 7mph /  11.3km/h 93% 0in /  0.0mm 118 W/m2
13:01 63.3 °F /  17.4 °C 61 °F /  16.1 °C 30.1in /  1019.6hPa West 6mph /  9.7km/h 6mph /  9.7km/h 92% 0in /  0.0mm 144 W/m2
13:06 63.3 °F /  17.4 °C 61.3 °F /  16.3 °C 30.1in /  1019.6hPa West 4mph /  6.4km/h 4mph /  6.4km/h 93% 0in /  0.0mm 186 W/m2
13:11 63.7 °F /  17.6 °C 61.7 °F /  16.5 °C 30.1in /  1019.6hPa West 4mph /  6.4km/h 4mph /  6.4km/h 93% 0in /  0.0mm 167 W/m2
13:16 63.7 °F /  17.6 °C 61.3 °F /  16.3 °C 30.1in /  1019.6hPa WNW 4mph /  6.4km/h 6mph /  9.7km/h 92% 0in /  0.0mm 135 W/m2
13:21 63.7 °F /  17.6 °C 61.7 °F /  16.5 °C 30.1in /  1019.6hPa West 4mph /  6.4km/h 4mph /  6.4km/h 93% 0in /  0.0mm 116 W/m2
13:26 63.7 °F /  17.6 °C 61.7 °F /  16.5 °C 30.1in /  1019.6hPa West 6mph /  9.7km/h 6mph /  9.7km/h 93% 0in /  0.0mm 160 W/m2
13:31 63.9 °F /  17.7 °C 61.9 °F /  16.6 °C 30.1in /  1019.6hPa WNW 2mph /  3.2km/h 7mph /  11.3km/h 93% 0in /  0.0mm 188 W/m2
13:36 64 °F /  17.8 °C 61.7 °F /  16.5 °C 30.1in /  1019.6hPa WNW 4mph /  6.4km/h 7mph /  11.3km/h 92% 0in /  0.0mm 218 W/m2
13:41 64.2 °F /  17.9 °C 61.5 °F /  16.4 °C 30.1in /  1019.6hPa West 6.9mph /  11.1km/h 10mph /  16.1km/h 91% 0in /  0.0mm 251 W/m2
13:46 64.8 °F /  18.2 °C 61.7 °F /  16.5 °C 30.1in /  1019.6hPa WNW 2mph /  3.2km/h 3mph /  4.8km/h 90% 0in /  0.0mm 299 W/m2
13:52 65.1 °F /  18.4 °C 61.5 °F /  16.4 °C 30.1in /  1019.6hPa WNW 6mph /  9.7km/h 10mph /  16.1km/h 88% 0in /  0.0mm 297 W/m2
13:57 65.5 °F /  18.6 °C 61.5 °F /  16.4 °C 30.1in /  1019.6hPa WNW 2mph /  3.2km/h 10mph /  16.1km/h 87% 0in /  0.0mm 323 W/m2
14:02 65.5 °F /  18.6 °C 61.2 °F /  16.2 °C 30.1in /  1020.0hPa WNW 6.9mph /  11.1km/h 12mph /  19.3km/h 86% 0in /  0.0mm 367 W/m2
14:07 65.5 °F /  18.6 °C 61.2 °F /  16.2 °C 30.1in /  1019.6hPa WNW 4.9mph /  7.9km/h 12mph /  19.3km/h 86% 0in /  0.0mm 425 W/m2
14:12 65.7 °F /  18.7 °C 61.7 °F /  16.5 °C 30.1in /  1019.6hPa West 6mph /  9.7km/h 9mph /  14.5km/h 87% 0in /  0.0mm 482 W/m2
14:17 65.8 °F /  18.8 °C 61.2 °F /  16.2 °C 30.1in /  1020.0hPa WNW 8.1mph /  13km/h 14mph /  22.5km/h 85% 0in /  0.0mm 668 W/m2
14:22 65.8 °F /  18.8 °C 61.2 °F /  16.2 °C 30.1in /  1020.0hPa West 4mph /  6.4km/h 8mph /  12.9km/h 85% 0in /  0.0mm 359 W/m2
14:27 65.7 °F /  18.7 °C 60.6 °F /  15.9 °C 30.1in /  1019.6hPa West 6mph /  9.7km/h 10mph /  16.1km/h 84% 0in /  0.0mm 380 W/m2
14:32 65.7 °F /  18.7 °C 60.6 °F /  15.9 °C 30.1in /  1019.6hPa WNW 4.9mph /  7.9km/h 14mph /  22.5km/h 84% 0in /  0.0mm 396 W/m2
14:37 65.7 °F /  18.7 °C 61 °F /  16.1 °C 30.1in /  1020.0hPa WSW 12.1mph /  19.5km/h 12mph /  19.3km/h 85% 0in /  0.0mm 374 W/m2
14:42 65.5 °F /  18.6 °C 60.4 °F /  15.8 °C 30.1in /  1019.6hPa West 2.9mph /  4.7km/h 8mph /  12.9km/h 84% 0in /  0.0mm 359 W/m2
14:47 65.5 °F /  18.6 °C 60.4 °F /  15.8 °C 30.1in /  1020.0hPa West 2.9mph /  4.7km/h 12mph /  19.3km/h 84% 0in /  0.0mm 367 W/m2
14:52 65.1 °F /  18.4 °C 60.1 °F /  15.6 °C 30.1in /  1020.0hPa WNW 13mph /  20.9km/h 13mph /  20.9km/h 84% 0in /  0.0mm 369 W/m2
14:57 65.1 °F /  18.4 °C 60.4 °F /  15.8 °C 30.1in /  1020.0hPa WNW 6.9mph /  11.1km/h 8mph /  12.9km/h 85% 0in /  0.0mm 362 W/m2
15:02 64.8 °F /  18.2 °C 60.1 °F /  15.6 °C 30.1in /  1020.0hPa WSW 4mph /  6.4km/h 8mph /  12.9km/h 85% 0in /  0.0mm 309 W/m2
15:07 64.8 °F /  18.2 °C 60.4 °F /  15.8 °C 30.1in /  1020.0hPa NNW 10.1mph /  16.3km/h 15mph /  24.1km/h 86% 0in /  0.0mm 299 W/m2
15:12 64.4 °F /  18 °C 59.7 °F /  15.4 °C 30.1in /  1020.0hPa West 13mph /  20.9km/h 15mph /  24.1km/h 85% 0in /  0.0mm 272 W/m2
15:17 64 °F /  17.8 °C 59.7 °F /  15.4 °C 30.1in /  1020.0hPa West 6.9mph /  11.1km/h 11mph /  17.7km/h 86% 0in /  0.0mm 272 W/m2
15:22 63.9 °F /  17.7 °C 59.5 °F /  15.3 °C 30.1in /  1020.0hPa WNW 15mph /  24.1km/h 15mph /  24.1km/h 86% 0in /  0.0mm 165 W/m2
15:27 63.3 °F /  17.4 °C 59 °F /  15 °C 30.1in /  1020.0hPa WNW 6.9mph /  11.1km/h 13mph /  20.9km/h 86% 0in /  0.0mm 176 W/m2
15:32 63.1 °F /  17.3 °C 59.5 °F /  15.3 °C 30.1in /  1020.0hPa West 4mph /  6.4km/h 7mph /  11.3km/h 88% 0in /  0.0mm 239 W/m2
15:37 63.1 °F /  17.3 °C 59.2 °F /  15.1 °C 30.1in /  1020.0hPa West 8.9mph /  14.3km/h 13mph /  20.9km/h 87% 0in /  0.0mm 234 W/m2
15:42 63 °F /  17.2 °C 59 °F /  15 °C 30.1in /  1020.0hPa NW 2.9mph /  4.7km/h 11mph /  17.7km/h 87% 0in /  0.0mm 279 W/m2
15:47 63.1 °F /  17.3 °C 59.5 °F /  15.3 °C 30.1in /  1020.0hPa WSW 8.9mph /  14.3km/h 9mph /  14.5km/h 88% 0in /  0.0mm 257 W/m2
15:52 63.5 °F /  17.5 °C 59.5 °F /  15.3 °C 30.1in /  1020.0hPa West 4mph /  6.4km/h 7mph /  11.3km/h 87% 0in /  0.0mm 271 W/m2
15:57 63.7 °F /  17.6 °C 59.7 °F /  15.4 °C 30.1in /  1020.0hPa West 11mph /  17.7km/h 13mph /  20.9km/h 87% 0in /  0.0mm 287 W/m2
16:02 63.7 °F /  17.6 °C 59.4 °F /  15.2 °C 30.1in /  1020.0hPa WSW 2.9mph /  4.7km/h 8mph /  12.9km/h 86% 0in /  0.0mm 341 W/m2
16:07 63.7 °F /  17.6 °C 59.4 °F /  15.2 °C 30.1in /  1020.0hPa WNW 8.9mph /  14.3km/h 13mph /  20.9km/h 86% 0in /  0.0mm 383 W/m2
16:12 63.9 °F /  17.7 °C 59.5 °F /  15.3 °C 30.1in /  1020.0hPa West 6mph /  9.7km/h 11mph /  17.7km/h 86% 0in /  0.0mm 455 W/m2
16:17 64 °F /  17.8 °C 59.7 °F /  15.4 °C 30.1in /  1020.0hPa WNW 4.9mph /  7.9km/h 9mph /  14.5km/h 86% 0in /  0.0mm 564 W/m2
16:22 64.4 °F /  18 °C 59.7 °F /  15.4 °C 30.1in /  1020.0hPa West 6.9mph /  11.1km/h 12mph /  19.3km/h 85% 0in /  0.0mm 545 W/m2
16:27 64.6 °F /  18.1 °C 59.9 °F /  15.5 °C 30.1in /  1020.0hPa WNW 8.1mph /  13km/h 12mph /  19.3km/h 85% 0in /  0.0mm 260 W/m2
16:32 64.2 °F /  17.9 °C 59.4 °F /  15.2 °C 30.1in /  1020.3hPa West 6.9mph /  11.1km/h 13mph /  20.9km/h 84% 0in /  0.0mm 422 W/m2
16:37 64.2 °F /  17.9 °C 59.5 °F /  15.3 °C 30.1in /  1020.0hPa West 6.9mph /  11.1km/h 11mph /  17.7km/h 85% 0in /  0.0mm 726 W/m2
16:42 64.6 °F /  18.1 °C 59.7 °F /  15.4 °C 30.1in /  1020.0hPa West 8.9mph /  14.3km/h 12mph /  19.3km/h 84% 0in /  0.0mm 475 W/m2
16:47 64.8 °F /  18.2 °C 59.5 °F /  15.3 °C 30.1in /  1020.0hPa WSW 10.1mph /  16.3km/h 16mph /  25.7km/h 83% 0in /  0.0mm 432 W/m2
16:52 64.8 °F /  18.2 °C 59.9 °F /  15.5 °C 30.1in /  1020.0hPa NW 4.9mph /  7.9km/h 12mph /  19.3km/h 84% 0in /  0.0mm 1016 W/m2
16:57 65.1 °F /  18.4 °C 59.9 °F /  15.5 °C 30.1in /  1020.0hPa West 11mph /  17.7km/h 16mph /  25.7km/h 83% 0in /  0.0mm 775 W/m2
17:02 64.9 °F /  18.3 °C 59.7 °F /  15.4 °C 30.1in /  1020.3hPa NW 4.9mph /  7.9km/h 11mph /  17.7km/h 83% 0in /  0.0mm 352 W/m2
17:07 64.6 °F /  18.1 °C 59.4 °F /  15.2 °C 30.1in /  1020.0hPa WNW 4mph /  6.4km/h 12mph /  19.3km/h 83% 0in /  0.0mm 276 W/m2
17:12 64.4 °F /  18 °C 59.5 °F /  15.3 °C 30.1in /  1020.3hPa West 4mph /  6.4km/h 9mph /  14.5km/h 84% 0in /  0.0mm 316 W/m2
17:17 64.2 °F /  17.9 °C 59.4 °F /  15.2 °C 30.1in /  1020.3hPa West 4mph /  6.4km/h 9mph /  14.5km/h 84% 0in /  0.0mm 309 W/m2
17:22 64.6 °F /  18.1 °C 59.4 °F /  15.2 °C 30.1in /  1020.3hPa West 6mph /  9.7km/h 9mph /  14.5km/h 83% 0in /  0.0mm 288 W/m2
17:27 64.2 °F /  17.9 °C 59 °F /  15 °C 30.1in /  1020.3hPa WSW 8.1mph /  13km/h 11mph /  17.7km/h 83% 0in /  0.0mm 214 W/m2
17:32 64 °F /  17.8 °C 59.2 °F /  15.1 °C 30.1in /  1020.7hPa WSW 4.9mph /  7.9km/h 12mph /  19.3km/h 84% 0in /  0.0mm 380 W/m2
17:37 63.9 °F /  17.7 °C 59 °F /  15 °C 30.1in /  1020.7hPa West 6mph /  9.7km/h 9mph /  14.5km/h 84% 0in /  0.0mm 221 W/m2
17:42 63.7 °F /  17.6 °C 58.8 °F /  14.9 °C 30.1in /  1020.7hPa WSW 6.9mph /  11.1km/h 9mph /  14.5km/h 84% 0in /  0.0mm 139 W/m2
17:47 63.1 °F /  17.3 °C 58.3 °F /  14.6 °C 30.1in /  1020.7hPa NW 4.9mph /  7.9km/h 12mph /  19.3km/h 84% 0in /  0.0mm 123 W/m2
17:52 62.4 °F /  16.9 °C 57.9 °F /  14.4 °C 30.1in /  1020.7hPa West 6mph /  9.7km/h 10mph /  16.1km/h 85% 0in /  0.0mm 185 W/m2
17:57 62.2 °F /  16.8 °C 57.7 °F /  14.3 °C 30.1in /  1020.7hPa West 4mph /  6.4km/h 12mph /  19.3km/h 85% 0in /  0.0mm 151 W/m2
18:02 62.2 °F /  16.8 °C 57.9 °F /  14.4 °C 30.1in /  1020.7hPa West 6.9mph /  11.1km/h 15mph /  24.1km/h 86% 0in /  0.0mm 207 W/m2
18:07 62.2 °F /  16.8 °C 57.9 °F /  14.4 °C 30.1in /  1020.7hPa West 10.1mph /  16.3km/h 10mph /  16.1km/h 86% 0in /  0.0mm 243 W/m2
18:12 62.2 °F /  16.8 °C 57.9 °F /  14.4 °C 30.1in /  1020.7hPa WSW 6.9mph /  11.1km/h 15mph /  24.1km/h 86% 0in /  0.0mm 230 W/m2
18:17 62.2 °F /  16.8 °C 57.7 °F /  14.3 °C 30.1in /  1020.7hPa West 4mph /  6.4km/h 11mph /  17.7km/h 85% 0in /  0.0mm 199 W/m2
18:22 62.2 °F /  16.8 °C 57.9 °F /  14.4 °C 30.1in /  1020.7hPa NNW 4mph /  6.4km/h 9mph /  14.5km/h 86% 0in /  0.0mm 139 W/m2
18:27 62.1 °F /  16.7 °C 57.7 °F /  14.3 °C 30.1in /  1020.7hPa NNW 6mph /  9.7km/h 10mph /  16.1km/h 86% 0in /  0.0mm 113 W/m2
18:32 62.1 °F /  16.7 °C 57.7 °F /  14.3 °C 30.1in /  1020.7hPa WNW 4mph /  6.4km/h 8mph /  12.9km/h 86% 0in /  0.0mm 167 W/m2
18:37 62.1 °F /  16.7 °C 57.7 °F /  14.3 °C 30.1in /  1020.7hPa WSW 8.1mph /  13km/h 9mph /  14.5km/h 86% 0in /  0.0mm 188 W/m2
18:42 62.1 °F /  16.7 °C 57.7 °F /  14.3 °C 30.1in /  1020.7hPa WNW 6mph /  9.7km/h 8mph /  12.9km/h 86% 0in /  0.0mm 185 W/m2
18:47 62.1 °F /  16.7 °C 57.6 °F /  14.2 °C 30.1in /  1020.7hPa WNW 6.9mph /  11.1km/h 8mph /  12.9km/h 85% 0in /  0.0mm 151 W/m2
18:52 62.1 °F /  16.7 °C 57.6 °F /  14.2 °C 30.1in /  1020.7hPa WNW 2mph /  3.2km/h 9mph /  14.5km/h 85% 0in /  0.0mm 172 W/m2
18:57 61.7 °F /  16.5 °C 57.2 °F /  14 °C 30.1in /  1020.7hPa WNW 8.1mph /  13km/h 11mph /  17.7km/h 85% 0in /  0.0mm 142 W/m2
19:02 61.5 °F /  16.4 °C 57.4 °F /  14.1 °C 30.1in /  1020.7hPa WSW 8.1mph /  13km/h 9mph /  14.5km/h 86% 0in /  0.0mm 105 W/m2
19:07 61.3 °F /  16.3 °C 57.2 °F /  14 °C 30.1in /  1020.7hPa West 8.9mph /  14.3km/h 10mph /  16.1km/h 86% 0in /  0.0mm 111 W/m2
19:12 61.3 °F /  16.3 °C 57.2 °F /  14 °C 30.1in /  1020.7hPa West 4mph /  6.4km/h 9mph /  14.5km/h 86% 0in /  0.0mm 125 W/m2
19:17 61.2 °F /  16.2 °C 57 °F /  13.9 °C 30.1in /  1020.7hPa West 4mph /  6.4km/h 10mph /  16.1km/h 86% 0in /  0.0mm 88 W/m2
19:22 61.2 °F /  16.2 °C 57 °F /  13.9 °C 30.2in /  1021.0hPa WSW 2.9mph /  4.7km/h 8mph /  12.9km/h 86% 0in /  0.0mm 60 W/m2
19:27 61 °F /  16.1 °C 56.8 °F /  13.8 °C 30.1in /  1020.7hPa West 4mph /  6.4km/h 8mph /  12.9km/h 86% 0in /  0.0mm 32 W/m2
19:32 60.8 °F /  16 °C 56.8 °F /  13.8 °C 30.2in /  1021.0hPa WNW 4mph /  6.4km/h 4mph /  6.4km/h 87% 0in /  0.0mm 35 W/m2
19:37 60.6 °F /  15.9 °C 56.7 °F /  13.7 °C 30.2in /  1021.0hPa West 2mph /  3.2km/h 7mph /  11.3km/h 87% 0in /  0.0mm 47 W/m2
19:42 60.4 °F /  15.8 °C 56.8 °F /  13.8 °C 30.2in /  1021.0hPa WSW 4mph /  6.4km/h 6mph /  9.7km/h 88% 0in /  0.0mm 49 W/m2
19:47 60.3 °F /  15.7 °C 56.7 °F /  13.7 °C 30.2in /  1021.0hPa NW 4mph /  6.4km/h 7mph /  11.3km/h 88% 0in /  0.0mm 40 W/m2
19:52 60.1 °F /  15.6 °C 56.8 °F /  13.8 °C 30.2in /  1021.0hPa WSW 4mph /  6.4km/h 5mph /  8km/h 89% 0in /  0.0mm 44 W/m2
19:57 59.9 °F /  15.5 °C 56.7 °F /  13.7 °C 30.2in /  1021.0hPa West 6.9mph /  11.1km/h 8mph /  12.9km/h 89% 0in /  0.0mm 72 W/m2
20:02 59.5 °F /  15.3 °C 56.7 °F /  13.7 °C 30.2in /  1021.0hPa West 2mph /  3.2km/h 7mph /  11.3km/h 90% 0in /  0.0mm 60 W/m2
20:07 59.5 °F /  15.3 °C 56.8 °F /  13.8 °C 30.2in /  1021.0hPa West 4mph /  6.4km/h 6mph /  9.7km/h 91% 0in /  0.0mm 26 W/m2
20:12 59.4 °F /  15.2 °C 56.7 °F /  13.7 °C 30.2in /  1021.0hPa West 2mph /  3.2km/h 6mph /  9.7km/h 91% 0in /  0.0mm 14 W/m2
20:17 59.2 °F /  15.1 °C 56.5 °F /  13.6 °C 30.2in /  1021.3hPa WNW 2.9mph /  4.7km/h 8mph /  12.9km/h 91% 0in /  0.0mm 11 W/m2
20:22 59.2 °F /  15.1 °C 56.5 °F /  13.6 °C 30.2in /  1021.3hPa WNW 2.9mph /  4.7km/h 5mph /  8km/h 91% 0in /  0.0mm 9 W/m2
20:27 59.2 °F /  15.1 °C 56.5 °F /  13.6 °C 30.2in /  1021.3hPa West 6mph /  9.7km/h 8mph /  12.9km/h 91% 0in /  0.0mm 11 W/m2
20:32 59.2 °F /  15.1 °C 56.5 °F /  13.6 °C 30.2in /  1021.3hPa WNW 6mph /  9.7km/h 7mph /  11.3km/h 91% 0in /  0.0mm 9 W/m2
20:37 59.2 °F /  15.1 °C 56.5 °F /  13.6 °C 30.2in /  1021.3hPa WSW 4mph /  6.4km/h 4mph /  6.4km/h 91% 0in /  0.0mm 5 W/m2
20:42 59.2 °F /  15.1 °C 56.5 °F /  13.6 °C 30.2in /  1021.3hPa SW 4mph /  6.4km/h 6mph /  9.7km/h 91% 0in /  0.0mm 5 W/m2
20:47 59 °F /  15 °C 56.3 °F /  13.5 °C 30.2in /  1021.3hPa West 2.9mph /  4.7km/h 8mph /  12.9km/h 91% 0in /  0.0mm 5 W/m2
20:52 58.8 °F /  14.9 °C 56.1 °F /  13.4 °C 30.2in /  1021.3hPa WSW 2.9mph /  4.7km/h 7mph /  11.3km/h 91% 0in /  0.0mm 5 W/m2
20:57 59 °F /  15 °C 56.3 °F /  13.5 °C 30.2in /  1021.3hPa West 2.9mph /  4.7km/h 8mph /  12.9km/h 91% 0in /  0.0mm 7 W/m2
21:02 58.8 °F /  14.9 °C 56.1 °F /  13.4 °C 30.2in /  1021.3hPa WNW 0.9mph /  1.4km/h 4mph /  6.4km/h 91% 0in /  0.0mm 7 W/m2
21:07 58.8 °F /  14.9 °C 56.1 °F /  13.4 °C 30.2in /  1021.7hPa SW 4.9mph /  7.9km/h 5mph /  8km/h 91% 0in /  0.0mm 5 W/m2
21:12 58.8 °F /  14.9 °C 56.1 °F /  13.4 °C 30.2in /  1021.3hPa WNW 2.9mph /  4.7km/h 9mph /  14.5km/h 91% 0in /  0.0mm 0 W/m2
21:17 58.8 °F /  14.9 °C 56.1 °F /  13.4 °C 30.2in /  1021.3hPa WNW 2.9mph /  4.7km/h 7mph /  11.3km/h 91% 0in /  0.0mm 0 W/m2
21:22 59 °F /  15 °C 56.3 °F /  13.5 °C 30.2in /  1021.7hPa West 2.9mph /  4.7km/h 9mph /  14.5km/h 91% 0in /  0.0mm 0 W/m2
21:27 59 °F /  15 °C 56.3 °F /  13.5 °C 30.2in /  1021.7hPa West 2.9mph /  4.7km/h 6mph /  9.7km/h 91% 0in /  0.0mm 0 W/m2
21:32 59 °F /  15 °C 56.3 °F /  13.5 °C 30.2in /  1021.7hPa West 0.9mph /  1.4km/h 6mph /  9.7km/h 91% 0in /  0.0mm 0 W/m2
21:37 59 °F /  15 °C 56.3 °F /  13.5 °C 30.2in /  1021.7hPa WSW 2.9mph /  4.7km/h 6mph /  9.7km/h 91% 0in /  0.0mm 0 W/m2
21:42 59 °F /  15 °C 56.3 °F /  13.5 °C 30.2in /  1021.7hPa West 4mph /  6.4km/h 6mph /  9.7km/h 91% 0in /  0.0mm 0 W/m2
21:47 59.2 °F /  15.1 °C 56.5 °F /  13.6 °C 30.2in /  1021.7hPa WNW 4mph /  6.4km/h 7mph /  11.3km/h 91% 0in /  0.0mm 0 W/m2
21:52 59.2 °F /  15.1 °C 56.3 °F /  13.5 °C 30.2in /  1021.7hPa WNW 2.9mph /  4.7km/h 8mph /  12.9km/h 90% 0in /  0.0mm 0 W/m2
21:57 59.2 °F /  15.1 °C 56.3 °F /  13.5 °C 30.2in /  1022.0hPa WSW 4mph /  6.4km/h 6mph /  9.7km/h 90% 0in /  0.0mm 0 W/m2
22:02 59.2 °F /  15.1 °C 56.3 °F /  13.5 °C 30.2in /  1022.0hPa West 2.9mph /  4.7km/h 8mph /  12.9km/h 90% 0in /  0.0mm 0 W/m2
22:07 59.2 °F /  15.1 °C 56.3 °F /  13.5 °C 30.2in /  1022.0hPa WNW 2mph /  3.2km/h 4mph /  6.4km/h 90% 0in /  0.0mm 0 W/m2
22:12 59.2 °F /  15.1 °C 56.3 °F /  13.5 °C 30.2in /  1022.0hPa West 2.9mph /  4.7km/h 4mph /  6.4km/h 90% 0in /  0.0mm 0 W/m2
22:17 59.2 °F /  15.1 °C 56.3 °F /  13.5 °C 30.2in /  1022.0hPa West 2mph /  3.2km/h 7mph /  11.3km/h 90% 0in /  0.0mm 0 W/m2
22:22 59.4 °F /  15.2 °C 56.5 °F /  13.6 °C 30.2in /  1022.0hPa West 2.9mph /  4.7km/h 6mph /  9.7km/h 90% 0in /  0.0mm 0 W/m2
22:27 59.4 °F /  15.2 °C 56.5 °F /  13.6 °C 30.2in /  1022.0hPa NW 2.9mph /  4.7km/h 7mph /  11.3km/h 90% 0in /  0.0mm 0 W/m2
22:32 59.4 °F /  15.2 °C 56.5 °F /  13.6 °C 30.2in /  1022.0hPa WNW 2mph /  3.2km/h 5mph /  8km/h 90% 0in /  0.0mm 0 W/m2
22:37 59.4 °F /  15.2 °C 56.5 °F /  13.6 °C 30.2in /  1022.0hPa West 2.9mph /  4.7km/h 4mph /  6.4km/h 90% 0in /  0.0mm 0 W/m2
22:42 59.4 °F /  15.2 °C 56.5 °F /  13.6 °C 30.2in /  1022.0hPa West 2.9mph /  4.7km/h 4mph /  6.4km/h 90% 0in /  0.0mm 0 W/m2
22:47 59.4 °F /  15.2 °C 56.5 °F /  13.6 °C 30.2in /  1022.0hPa WNW 0.9mph /  1.4km/h 4mph /  6.4km/h 90% 0in /  0.0mm 0 W/m2
22:52 59.4 °F /  15.2 °C 56.5 °F /  13.6 °C 30.2in /  1022.0hPa WNW 2mph /  3.2km/h 4mph /  6.4km/h 90% 0in /  0.0mm 0 W/m2
22:57 59.4 °F /  15.2 °C 56.1 °F /  13.4 °C 30.2in /  1022.0hPa West 6mph /  9.7km/h 6mph /  9.7km/h 89% 0in /  0.0mm 0 W/m2
23:02 59.2 °F /  15.1 °C 56.3 °F /  13.5 °C 30.2in /  1022.0hPa WSW 2mph /  3.2km/h 7mph /  11.3km/h 90% 0in /  0.0mm 0 W/m2
23:07 59.2 °F /  15.1 °C 56.3 °F /  13.5 °C 30.2in /  1022.0hPa WSW 2.9mph /  4.7km/h 4mph /  6.4km/h 90% 0in /  0.0mm 0 W/m2
23:13 59.2 °F /  15.1 °C 56.3 °F /  13.5 °C 30.2in /  1022.0hPa WNW 2.9mph /  4.7km/h 6mph /  9.7km/h 90% 0in /  0.0mm 0 W/m2
23:18 59.2 °F /  15.1 °C 56.3 °F /  13.5 °C 30.2in /  1022.0hPa WSW 2mph /  3.2km/h 3mph /  4.8km/h 90% 0in /  0.0mm 0 W/m2
23:23 59.2 °F /  15.1 °C 56.3 °F /  13.5 °C 30.2in /  1022.0hPa West 2mph /  3.2km/h 4mph /  6.4km/h 90% 0in /  0.0mm 0 W/m2
23:28 59.2 °F /  15.1 °C 56.3 °F /  13.5 °C 30.2in /  1022.0hPa West 2.9mph /  4.7km/h 3mph /  4.8km/h 90% 0in /  0.0mm 0 W/m2
23:33 59 °F /  15 °C 56.1 °F /  13.4 °C 30.2in /  1022.0hPa WNW 2mph /  3.2km/h 4mph /  6.4km/h 90% 0in /  0.0mm 0 W/m2
23:38 59 °F /  15 °C 56.1 °F /  13.4 °C 30.2in /  1022.4hPa West 2mph /  3.2km/h 3mph /  4.8km/h 90% 0in /  0.0mm 0 W/m2
23:43 58.8 °F /  14.9 °C 55.9 °F /  13.3 °C 30.2in /  1022.4hPa West 2mph /  3.2km/h 4mph /  6.4km/h 90% 0in /  0.0mm 0 W/m2
23:48 58.8 °F /  14.9 °C 55.9 °F /  13.3 °C 30.2in /  1022.0hPa WNW 0.9mph /  1.4km/h 4mph /  6.4km/h 90% 0in /  0.0mm 0 W/m2
23:53 58.8 °F /  14.9 °C 55.9 °F /  13.3 °C 30.2in /  1022.4hPa West 4mph /  6.4km/h 4mph /  6.4km/h 90% 0in /  0.0mm 0 W/m2
23:58 58.8 °F /  14.9 °C 55.9 °F /  13.3 °C 30.2in /  1022.4hPa WSW 4.9mph /  7.9km/h 8mph /  12.9km/h 90% 0in /  0.0mm 0 W/m2
Juneau County Weather
Compliments of Weather Underground - 4 mb